Time;durP1;ratioP1;P1;durP2;ratioP2;P2;SDS_P1;SDS_P2;PMS_P1;PMS_P2;Temp;Humidity;BMP_temperature;BMP_pressure;BME280_temperature;BME280_humidity;BME280_pressure;Samples;Min_cycle;Max_cycle;Signal;HPM_P1;HPM_P2
2023/07/12 00:01:16;;;;;;;5.93;3.20;;;;;;;24.61;84.79;95605.75;4989812;28;20743;-91
2023/07/12 00:04:03;;;;;;;7.15;3.30;;;;;;;24.65;82.57;95593.63;5009960;28;20256;-91
2023/07/12 00:06:36;;;;;;;3.72;2.30;;;;;;;24.63;82.57;95608.91;5024093;28;20222;-92
2023/07/12 00:09:02;;;;;;;4.18;2.80;;;;;;;24.63;82.80;95607.03;5009231;28;20234;-91
2023/07/12 00:11:29;;;;;;;4.63;2.65;;;;;;;24.64;80.16;95555.97;5009029;28;20202;-91
2023/07/12 00:13:56;;;;;;;3.78;2.58;;;;;;;24.65;79.61;95557.53;5008937;28;20536;-91
2023/07/12 00:16:24;;;;;;;5.75;3.05;;;;;;;24.66;79.14;95514.34;5009215;28;20233;-91
2023/07/12 00:18:53;;;;;;;6.03;2.70;;;;;;;24.64;78.12;95505.13;5007025;28;20218;-90
2023/07/12 00:21:23;;;;;;;5.63;2.83;;;;;;;24.53;81.06;95558.88;5009295;28;20298;-90
2023/07/12 00:23:52;;;;;;;3.53;2.70;;;;;;;24.56;78.60;95501.22;5009163;28;20630;-91
2023/07/12 00:26:21;;;;;;;4.60;3.10;;;;;;;24.65;78.47;95525.94;5008991;28;20223;-91
2023/07/12 00:28:48;;;;;;;2.47;2.28;;;;;;;24.69;78.05;95534.91;5008933;28;20206;-92
2023/07/12 00:31:15;;;;;;;5.60;2.88;;;;;;;24.66;78.29;95545.16;5008144;28;20203;-90
2023/07/12 00:33:41;;;;;;;3.90;2.60;;;;;;;24.62;77.73;95529.13;5008223;28;20202;-91
2023/07/12 00:36:13;;;;;;;5.85;2.88;;;;;;;24.56;81.92;95574.16;5008230;28;20265;-91
2023/07/12 00:38:40;;;;;;;5.05;2.67;;;;;;;24.56;81.38;95595.22;5007972;28;20218;-90
2023/07/12 00:41:17;;;;;;;5.05;2.97;;;;;;;24.60;78.07;95514.66;5008916;28;20195;-90
2023/07/12 00:43:49;;;;;;;3.88;2.72;;;;;;;24.57;79.35;95534.41;5008938;28;20347;-91
2023/07/12 00:46:21;;;;;;;3.88;2.83;;;;;;;24.62;80.59;95554.69;5008527;28;20280;-90
2023/07/12 00:48:48;;;;;;;7.70;2.90;;;;;;;24.58;80.04;95529.94;5008606;28;20568;-91
2023/07/12 00:51:38;;;;;;;6.03;2.75;;;;;;;24.54;79.86;95474.38;5006490;28;20215;-90
2023/07/12 00:54:12;;;;;;;5.90;3.17;;;;;;;24.31;85.26;95552.03;5003523;28;20215;-91
2023/07/12 00:56:40;;;;;;;3.17;2.58;;;;;;;24.22;85.90;95598.34;5008069;28;20684;-90
2023/07/12 00:59:13;;;;;;;4.65;2.83;;;;;;;24.30;84.11;95589.16;5008717;28;20672;-91
2023/07/12 01:01:40;;;;;;;5.13;2.83;;;;;;;24.28;83.51;95564.94;5008442;28;20649;-91
2023/07/12 01:04:08;;;;;;;3.83;2.88;;;;;;;24.28;82.03;95530.72;5011828;28;20190;-90
2023/07/12 01:06:35;;;;;;;3.67;2.60;;;;;;;24.37;82.97;95579.16;5010700;28;20218;-91
2023/07/12 01:09:06;;;;;;;3.58;2.53;;;;;;;24.43;80.59;95533.38;5012235;28;20209;-90
2023/07/12 01:11:32;;;;;;;4.45;2.92;;;;;;;24.42;80.59;95537.84;5012347;28;20755;-90
2023/07/12 01:14:00;;;;;;;2.88;2.50;;;;;;;24.48;79.32;95540.44;5012134;28;20202;-90
2023/07/12 01:16:27;;;;;;;5.22;2.90;;;;;;;24.48;79.34;95546.50;5011763;28;20311;-90
2023/07/12 01:18:53;;;;;;;5.03;2.78;;;;;;;24.51;79.32;95547.81;5012308;28;20206;-89
2023/07/12 01:21:24;;;;;;;4.15;2.90;;;;;;;24.57;78.65;95533.59;5012372;28;20221;-91
2023/07/12 01:23:51;;;;;;;4.80;2.60;;;;;;;24.63;78.05;95506.22;5009540;28;20215;-90
2023/07/12 01:26:22;;;;;;;4.00;3.05;;;;;;;24.63;78.70;95498.31;5017890;28;20237;-91
2023/07/12 01:28:52;;;;;;;4.88;2.65;;;;;;;24.64;78.11;95486.72;4997808;28;20213;-90
2023/07/12 01:31:19;;;;;;;3.88;2.80;;;;;;;24.59;77.71;95455.94;5011258;28;20675;-91
2023/07/12 01:33:45;;;;;;;5.88;2.70;;;;;;;24.64;77.94;95448.00;5012163;28;20687;-91
2023/07/12 01:36:12;;;;;;;3.75;3.08;;;;;;;24.49;80.54;95470.94;5011648;28;20911;-90
2023/07/12 01:38:40;;;;;;;6.05;4.32;;;;;;;24.11;81.32;95459.91;5009671;28;20202;-90
2023/07/12 01:41:06;;;;;;;5.47;3.47;;;;;;;24.10;82.03;95479.38;5011839;28;20776;-90
2023/07/12 01:43:33;;;;;;;4.30;3.20;;;;;;;24.13;83.37;95484.13;5011595;28;20209;-90
2023/07/12 01:46:00;;;;;;;5.57;3.72;;;;;;;24.04;83.96;95480.47;5011382;28;20219;-90
2023/07/12 01:48:26;;;;;;;4.18;2.67;;;;;;;24.14;82.97;95469.13;5011635;28;20207;-90
2023/07/12 01:50:53;;;;;;;5.65;3.03;;;;;;;24.15;83.74;95491.75;5011477;28;20199;-90
2023/07/12 01:53:19;;;;;;;5.53;3.13;;;;;;;24.05;83.82;95479.41;5011043;28;20230;-90
2023/07/12 01:55:47;;;;;;;3.80;2.42;;;;;;;23.97;81.80;95459.66;5009340;28;20219;-90
2023/07/12 01:58:14;;;;;;;3.90;2.70;;;;;;;23.96;82.26;95454.66;5011519;28;20638;-90
2023/07/12 02:00:40;;;;;;;3.95;2.92;;;;;;;24.04;81.25;95425.22;5011062;28;20202;-89
2023/07/12 02:03:07;;;;;;;3.95;2.90;;;;;;;24.02;81.22;95429.97;5011452;28;20206;-90
2023/07/12 02:05:33;;;;;;;3.65;2.83;;;;;;;23.98;82.55;95444.69;5027462;28;20194;-90
2023/07/12 02:08:00;;;;;;;3.30;2.65;;;;;;;24.05;82.29;95458.38;5013572;28;20254;-90
2023/07/12 02:10:27;;;;;;;4.63;2.78;;;;;;;24.07;81.90;95456.25;5009958;28;20210;-90
2023/07/12 02:12:54;;;;;;;3.70;2.67;;;;;;;24.04;83.08;95473.38;5009163;28;20199;-90
2023/07/12 02:15:21;;;;;;;4.57;2.80;;;;;;;24.03;81.70;95450.75;5010856;28;20281;-89
2023/07/12 02:17:47;;;;;;;4.40;2.85;;;;;;;24.01;81.94;95457.31;5011061;28;20227;-90
2023/07/12 02:20:14;;;;;;;5.70;3.45;;;;;;;24.01;82.06;95447.59;5011230;28;20218;-91
2023/07/12 02:22:43;;;;;;;5.07;3.20;;;;;;;23.90;82.75;95438.09;5010639;28;20203;-90
2023/07/12 02:25:10;;;;;;;3.30;2.47;;;;;;;23.85;81.45;95388.16;5011441;28;20206;-90
2023/07/12 02:27:37;;;;;;;6.80;2.75;;;;;;;23.87;81.12;95364.97;5009042;28;20233;-89
2023/07/12 02:30:06;;;;;;;3.67;2.95;;;;;;;23.55;82.39;95369.75;5010418;28;20746;-89
2023/07/12 02:32:33;;;;;;;3.00;2.33;;;;;;;23.54;83.38;95397.09;5009771;28;20203;-90
2023/07/12 02:34:59;;;;;;;3.40;2.83;;;;;;;23.52;84.35;95375.53;5010940;28;20214;-90
2023/07/12 02:37:26;;;;;;;2.70;2.42;;;;;;;23.25;85.42;95373.91;5010311;28;20736;-90
2023/07/12 02:39:52;;;;;;;2.95;2.60;;;;;;;23.26;85.46;95382.59;5010650;28;20199;-89
2023/07/12 02:42:19;;;;;;;4.35;2.53;;;;;;;23.39;85.85;95403.88;5010996;28;20206;-90
2023/07/12 02:44:48;;;;;;;2.95;2.50;;;;;;;23.34;85.68;95392.56;5008841;28;20265;-89
2023/07/12 02:47:16;;;;;;;4.18;2.95;;;;;;;23.29;84.91;95377.56;5010578;28;20265;-90
2023/07/12 02:49:42;;;;;;;4.18;2.92;;;;;;;23.27;85.02;95379.69;5010755;28;20258;-89
2023/07/12 02:52:10;;;;;;;2.88;2.25;;;;;;;23.36;84.57;95364.97;5009742;28;20203;-89
2023/07/12 02:54:36;;;;;;;3.55;2.47;;;;;;;23.44;84.09;95363.69;5010369;28;20231;-89
2023/07/12 02:57:04;;;;;;;4.93;2.65;;;;;;;23.52;82.80;95350.03;5010194;28;20226;-89
2023/07/12 02:59:31;;;;;;;4.05;2.60;;;;;;;23.66;81.78;95332.69;5008092;28;20206;-89
2023/07/12 03:01:58;;;;;;;3.58;2.35;;;;;;;23.72;81.13;95301.91;5010492;28;20265;-89
2023/07/12 03:04:26;;;;;;;2.70;2.50;;;;;;;23.81;80.73;95302.16;5017186;28;20244;-90
2023/07/12 03:06:52;;;;;;;4.32;2.30;;;;;;;23.79;81.11;95307.69;5019303;28;20218;-89
2023/07/12 03:09:19;;;;;;;4.00;2.60;;;;;;;23.76;81.00;95298.50;5010869;28;20210;-89
2023/07/12 03:11:46;;;;;;;3.92;2.53;;;;;;;23.74;80.82;95284.81;5010088;28;20404;-90
2023/07/12 03:14:14;;;;;;;3.53;2.70;;;;;;;23.70;81.09;95280.34;5009714;28;20199;-89
2023/07/12 03:16:41;;;;;;;4.53;3.10;;;;;;;23.70;81.76;95283.78;5008263;28;20630;-89
2023/07/12 03:19:08;;;;;;;3.72;2.63;;;;;;;23.86;81.32;95263.47;5010273;28;20203;-89
2023/07/12 03:21:35;;;;;;;4.25;2.55;;;;;;;23.66;81.77;95269.59;5010109;28;20206;-90
2023/07/12 03:24:02;;;;;;;5.03;3.00;;;;;;;23.56;82.87;95301.16;5009925;28;20642;-90
2023/07/12 03:26:29;;;;;;;4.30;2.78;;;;;;;23.64;82.31;95281.44;5008075;28;20933;-89
2023/07/12 03:28:58;;;;;;;3.50;3.20;;;;;;;23.64;82.21;95270.91;5008159;28;20630;-89
2023/07/12 03:31:26;;;;;;;3.20;2.85;;;;;;;23.61;81.78;95259.09;5007475;28;20213;-90
2023/07/12 03:33:53;;;;;;;4.95;3.38;;;;;;;23.56;81.45;95248.59;5009748;28;20295;-90
2023/07/12 03:36:20;;;;;;;5.55;3.13;;;;;;;23.64;80.93;95244.63;5009205;28;20222;-90
2023/07/12 03:38:48;;;;;;;5.95;2.85;;;;;;;23.59;82.00;95239.38;5009906;28;20191;-90
2023/07/12 03:41:15;;;;;;;4.97;3.30;;;;;;;23.50;82.10;95239.09;5009923;28;20213;-90
2023/07/12 03:43:42;;;;;;;5.82;3.33;;;;;;;23.50;82.22;95231.19;5009431;28;20202;-91
2023/07/12 03:46:09;;;;;;;3.80;2.90;;;;;;;23.50;81.96;95219.91;5009488;28;20218;-91
2023/07/12 03:48:35;;;;;;;4.18;3.08;;;;;;;23.50;81.28;95215.44;5008163;28;20233;-90
2023/07/12 03:51:01;;;;;;;7.38;3.30;;;;;;;23.50;81.92;95222.53;5009633;28;20629;-90
2023/07/12 03:53:29;;;;;;;5.43;3.15;;;;;;;23.45;82.27;95223.34;5008776;28;20195;-90
2023/07/12 03:56:00;;;;;;;6.30;3.50;;;;;;;23.43;82.28;95205.22;5009878;28;20219;-87
2023/07/12 03:58:30;;;;;;;7.32;3.38;;;;;;;23.41;83.50;95232.81;5013507;28;20249;-86
2023/07/12 04:00:57;;;;;;;5.22;3.55;;;;;;;23.53;82.37;95224.66;5009878;28;20261;-86
2023/07/12 04:03:23;;;;;;;6.32;3.22;;;;;;;23.48;83.25;95235.94;5007693;28;20198;-87
2023/07/12 04:05:51;;;;;;;4.50;3.15;;;;;;;23.51;82.58;95232.78;5010394;28;20281;-86
2023/07/12 04:08:19;;;;;;;5.70;3.40;;;;;;;23.54;82.55;95245.44;5010089;28;20240;-87
2023/07/12 04:10:50;;;;;;;9.10;3.15;;;;;;;23.55;81.90;95225.19;5010120;28;20261;-86
2023/07/12 04:13:18;;;;;;;5.80;3.30;;;;;;;23.64;81.61;95219.13;5007250;28;20210;-86
2023/07/12 04:15:44;;;;;;;5.38;3.35;;;;;;;23.65;81.22;95212.81;4990340;28;20207;-87
2023/07/12 04:18:10;;;;;;;6.85;3.30;;;;;;;23.68;80.47;95198.34;5008158;28;20634;-87
2023/07/12 04:20:38;;;;;;;4.05;3.28;;;;;;;23.65;80.15;95183.13;5006658;28;20203;-87
2023/07/12 04:23:04;;;;;;;4.55;3.00;;;;;;;23.47;81.93;95205.47;5007950;28;20198;-87
2023/07/12 04:25:32;;;;;;;5.63;3.40;;;;;;;23.53;82.14;95228.09;5012735;28;20206;-87
2023/07/12 04:27:58;;;;;;;5.22;3.33;;;;;;;23.51;83.25;95245.13;5006846;28;20595;-87
2023/07/12 04:30:26;;;;;;;5.75;3.33;;;;;;;23.59;82.98;95242.78;5008133;28;20203;-87
2023/07/12 04:32:53;;;;;;;3.92;3.55;;;;;;;23.67;82.92;95238.81;5008704;28;20206;-87
2023/07/12 04:35:19;;;;;;;5.85;3.95;;;;;;;23.74;81.70;95223.56;5008899;28;20330;-87
2023/07/12 04:37:46;;;;;;;6.63;3.33;;;;;;;23.71;80.45;95187.28;5007117;28;20688;-87
2023/07/12 04:40:13;;;;;;;5.70;3.45;;;;;;;23.70;80.63;95189.13;5008595;28;20208;-87
2023/07/12 04:42:40;;;;;;;4.70;3.08;;;;;;;23.77;80.39;95186.22;5008415;28;20213;-87
2023/07/12 04:45:08;;;;;;;4.20;3.38;;;;;;;23.76;81.03;95206.47;5008749;28;20242;-87
2023/07/12 04:47:36;;;;;;;4.50;3.85;;;;;;;23.70;81.43;95204.13;5008804;28;20298;-88
2023/07/12 04:50:04;;;;;;;8.13;3.90;;;;;;;23.80;81.34;95195.41;5008574;28;20203;-87
2023/07/12 04:52:30;;;;;;;5.45;3.67;;;;;;;23.83;80.88;95187.78;5005669;28;20202;-88
2023/07/12 04:54:58;;;;;;;4.65;3.80;;;;;;;23.74;82.41;95207.78;5005321;28;20218;-88
2023/07/12 04:57:24;;;;;;;5.45;3.72;;;;;;;23.71;82.62;95230.13;5008416;28;20315;-87
2023/07/12 04:59:51;;;;;;;6.22;3.70;;;;;;;23.71;82.48;95217.00;5008636;28;20206;-87
2023/07/12 05:02:18;;;;;;;7.07;3.80;;;;;;;23.67;82.65;95236.19;5008514;28;20213;-87
2023/07/12 05:04:46;;;;;;;5.97;4.10;;;;;;;23.58;84.49;95264.09;5017919;28;20697;-88
2023/07/12 05:07:13;;;;;;;8.35;3.38;;;;;;;23.70;84.20;95259.31;5028478;28;20565;-88
2023/07/12 05:09:40;;;;;;;4.20;3.80;;;;;;;23.70;82.33;95223.31;5010339;28;20253;-87
2023/07/12 05:12:08;;;;;;;4.03;3.60;;;;;;;23.78;82.24;95214.09;5008441;28;20329;-86
2023/07/12 05:14:34;;;;;;;5.53;3.50;;;;;;;23.75;80.94;95201.47;5009010;28;20206;-87
2023/07/12 05:17:01;;;;;;;6.22;3.25;;;;;;;23.93;80.48;95189.56;5008485;28;20238;-87
2023/07/12 05:19:27;;;;;;;4.25;3.47;;;;;;;24.01;81.17;95192.44;5008290;28;20555;-87
2023/07/12 05:21:55;;;;;;;5.18;3.60;;;;;;;24.13;80.21;95172.91;5007972;28;20237;-87
2023/07/12 05:24:21;;;;;;;5.78;3.75;;;;;;;24.10;79.19;95146.09;5007188;28;20265;-88
2023/07/12 05:26:50;;;;;;;6.18;3.60;;;;;;;24.14;79.95;95156.06;5007857;28;20719;-87
2023/07/12 05:29:17;;;;;;;4.05;3.40;;;;;;;24.20;79.10;95152.34;5008526;28;20745;-86
2023/07/12 05:31:43;;;;;;;4.60;3.30;;;;;;;24.26;78.35;95138.91;5008168;28;20261;-87
2023/07/12 05:34:10;;;;;;;5.65;3.13;;;;;;;24.24;77.39;95127.91;5008483;28;20694;-90
2023/07/12 05:36:38;;;;;;;12.48;3.80;;;;;;;24.37;76.89;95122.00;5008495;28;20602;-91
2023/07/12 05:39:06;;;;;;;4.63;3.35;;;;;;;24.49;76.72;95120.88;5008440;28;20195;-91
2023/07/12 05:41:33;;;;;;;5.43;3.35;;;;;;;24.49;76.70;95120.88;5006827;28;20199;-91
2023/07/12 05:43:59;;;;;;;5.25;3.00;;;;;;;24.49;76.12;95119.00;5008894;28;20206;-91
2023/07/12 05:46:27;;;;;;;3.53;3.00;;;;;;;24.47;74.01;95080.88;5008922;28;20273;-90
2023/07/12 05:48:54;;;;;;;3.75;2.70;;;;;;;24.48;73.01;95064.00;5008127;28;20206;-90
2023/07/12 05:51:21;;;;;;;5.30;3.08;;;;;;;24.54;73.10;95068.19;5011371;28;20222;-91
2023/07/12 05:53:47;;;;;;;4.35;2.83;;;;;;;24.57;72.92;95072.91;5002512;28;20214;-90
2023/07/12 05:56:15;;;;;;;7.05;4.22;;;;;;;24.60;72.38;95080.25;4992523;28;20223;-90
2023/07/12 05:58:42;;;;;;;6.75;5.03;;;;;;;24.60;72.51;95078.41;5012027;28;20207;-90
2023/07/12 06:01:08;;;;;;;5.03;4.57;;;;;;;24.54;73.80;95102.41;5012071;28;20206;-91
2023/07/12 06:03:35;;;;;;;9.10;3.88;;;;;;;24.56;74.05;95118.72;5011599;28;20202;-91
2023/07/12 06:06:06;;;;;;;6.82;3.80;;;;;;;24.62;73.47;95128.16;5005306;28;20711;-91
2023/07/12 06:08:32;;;;;;;5.32;2.78;;;;;;;24.60;72.47;95115.25;5012283;28;20203;-90
2023/07/12 06:10:59;;;;;;;3.72;3.05;;;;;;;24.63;72.77;95129.72;5011753;28;20214;-90
2023/07/12 06:13:27;;;;;;;5.25;3.00;;;;;;;24.52;73.19;95131.63;5009711;28;20206;-90
2023/07/12 06:15:53;;;;;;;7.05;2.70;;;;;;;24.51;73.98;95172.19;5011754;28;20227;-91
2023/07/12 06:18:20;;;;;;;4.45;2.90;;;;;;;24.48;74.22;95179.81;5011415;28;20222;-90
2023/07/12 06:20:46;;;;;;;7.95;3.28;;;;;;;24.37;76.36;95235.16;5012181;28;20206;-91
2023/07/12 06:23:13;;;;;;;5.20;3.20;;;;;;;24.24;78.67;95285.78;5011715;28;20202;-90
2023/07/12 06:25:40;;;;;;;5.07;3.75;;;;;;;24.20;79.12;95318.91;5011740;28;20260;-90
2023/07/12 06:28:06;;;;;;;7.57;5.78;;;;;;;24.15;79.46;95337.31;5011625;28;20206;-90
2023/07/12 06:30:34;;;;;;;5.55;3.35;;;;;;;24.07;81.04;95372.84;5009118;28;20207;-91
2023/07/12 06:33:00;;;;;;;3.58;2.78;;;;;;;23.93;79.89;95339.47;5010879;28;20210;-90
2023/07/12 06:35:27;;;;;;;4.22;2.72;;;;;;;23.95;81.13;95346.06;5011740;28;20202;-90
2023/07/12 06:37:54;;;;;;;4.55;3.10;;;;;;;23.96;81.40;95349.47;5011048;28;20218;-91
2023/07/12 06:40:20;;;;;;;4.53;2.67;;;;;;;23.91;79.28;95302.91;5011225;28;20260;-90
2023/07/12 06:42:47;;;;;;;4.18;2.80;;;;;;;23.98;78.97;95278.97;5011083;28;20234;-90
2023/07/12 06:45:13;;;;;;;6.38;3.03;;;;;;;23.99;78.33;95293.72;5009334;28;20222;-90
2023/07/12 06:47:41;;;;;;;4.60;2.78;;;;;;;23.91;77.83;95296.88;5010833;28;20215;-92
2023/07/12 06:50:08;;;;;;;3.53;2.92;;;;;;;23.74;77.08;95278.78;4993125;28;20196;-91
2023/07/12 06:52:34;;;;;;;4.38;2.65;;;;;;;23.55;77.09;95275.91;4991211;28;20688;-91
2023/07/12 06:55:01;;;;;;;3.95;2.40;;;;;;;23.64;77.31;95282.22;4991110;28;20210;-90
2023/07/12 06:57:42;;;;;;;5.82;2.47;;;;;;;23.56;76.15;95227.56;4991507;28;20234;-91
2023/07/12 07:00:13;;;;;;;5.68;2.65;;;;;;;23.41;76.18;95217.06;4989129;28;20203;-91
2023/07/12 07:02:41;;;;;;;4.40;2.20;;;;;;;23.22;75.50;95239.66;5005543;28;20207;-90
2023/07/12 07:05:08;;;;;;;3.70;3.25;;;;;;;23.21;76.44;95283.53;5023334;28;20597;-91
2023/07/12 07:07:34;;;;;;;4.05;3.25;;;;;;;23.25;76.47;95313.50;5030253;28;20226;-89
2023/07/12 07:10:01;;;;;;;2.92;2.10;;;;;;;23.34;76.41;95329.50;5030412;28;20685;-89
2023/07/12 07:12:29;;;;;;;4.00;2.20;;;;;;;23.32;76.15;95323.72;5022858;28;20207;-91
2023/07/12 07:15:18;;;;;;;2.53;1.83;;;;;;;23.24;75.96;95311.13;5010427;28;20203;-90
2023/07/12 07:17:46;;;;;;;2.17;1.80;;;;;;;23.06;74.09;95246.78;5009356;28;20862;-90
2023/07/12 07:20:13;;;;;;;3.63;1.63;;;;;;;23.06;74.60;95238.88;5010353;28;20286;-89
2023/07/12 07:22:40;;;;;;;1.92;1.70;;;;;;;23.01;74.42;95234.41;5010445;28;20731;-91
2023/07/12 07:25:08;;;;;;;2.30;1.65;;;;;;;23.10;74.88;95242.53;5010484;28;20576;-89
2023/07/12 07:27:34;;;;;;;3.33;1.50;;;;;;;23.21;73.74;95238.88;5010664;28;20265;-90
2023/07/12 07:30:01;;;;;;;3.45;1.70;;;;;;;23.13;73.36;95255.16;5010627;28;20676;-90
2023/07/12 07:32:28;;;;;;;3.35;1.70;;;;;;;23.25;73.71;95262.78;5010565;28;20691;-92
2023/07/12 07:34:56;;;;;;;2.90;1.50;;;;;;;23.34;73.89;95253.31;5008901;28;20288;-89
2023/07/12 07:37:23;;;;;;;3.42;1.52;;;;;;;23.43;73.48;95244.63;5010682;28;20239;-89
2023/07/12 07:39:49;;;;;;;2.55;1.80;;;;;;;23.41;73.83;95254.63;5010164;28;20202;-90
2023/07/12 07:42:18;;;;;;;1.92;1.60;;;;;;;23.45;73.57;95240.97;5010307;28;20206;-90
2023/07/12 07:44:45;;;;;;;2.20;1.50;;;;;;;23.42;73.13;95235.19;5010416;28;20273;-89
2023/07/12 07:47:11;;;;;;;2.67;1.60;;;;;;;23.49;73.04;95227.00;5009997;28;20216;-90
2023/07/12 07:49:38;;;;;;;4.55;1.83;;;;;;;23.62;72.08;95208.09;5009027;28;20242;-90
2023/07/12 07:52:07;;;;;;;2.20;1.90;;;;;;;23.60;71.50;95180.50;5009687;28;20210;-91
2023/07/12 07:54:33;;;;;;;5.18;2.05;;;;;;;23.69;71.71;95187.56;5010018;28;20198;-89
2023/07/12 07:57:05;;;;;;;3.63;2.00;;;;;;;23.80;71.26;95175.16;5009604;28;20253;-89
2023/07/12 07:59:38;;;;;;;2.85;1.60;;;;;;;23.79;71.20;95176.22;5010001;28;20282;-91
2023/07/12 08:02:05;;;;;;;2.78;1.67;;;;;;;23.93;71.30;95171.16;5009627;28;20237;-89
2023/07/12 08:04:31;;;;;;;1.85;1.30;;;;;;;23.95;70.68;95153.28;5017172;28;20200;-89
2023/07/12 08:06:58;;;;;;;3.83;1.50;;;;;;;24.07;70.45;95143.19;5013199;28;20236;-89
2023/07/12 08:09:51;;;;;;;3.05;1.65;;;;;;;24.03;69.58;95124.56;5009711;28;20206;-90
2023/07/12 08:12:20;;;;;;;4.30;1.67;;;;;;;24.16;69.60;95143.44;5003496;28;20202;-90
2023/07/12 08:14:49;;;;;;;3.35;1.48;;;;;;;24.12;69.37;95119.50;5009652;28;20217;-90
2023/07/12 08:17:15;;;;;;;1.83;1.63;;;;;;;24.24;69.16;95111.31;5009653;28;20222;-90
2023/07/12 08:19:42;;;;;;;2.85;1.77;;;;;;;24.39;68.96;95106.72;5009510;28;20202;-90
2023/07/12 08:22:08;;;;;;;1.92;1.60;;;;;;;24.43;67.84;95068.28;5007235;28;20217;-91
2023/07/12 08:24:35;;;;;;;3.13;1.58;;;;;;;24.55;67.45;95060.00;5009291;28;20203;-90
2023/07/12 08:27:03;;;;;;;2.90;1.20;;;;;;;24.71;67.98;95079.88;5009169;28;20231;-90
2023/07/12 08:29:29;;;;;;;4.20;1.58;;;;;;;24.75;67.84;95069.56;5008935;28;20702;-91
2023/07/12 08:31:58;;;;;;;3.30;1.65;;;;;;;24.87;67.43;95062.06;5008516;28;20199;-89
2023/07/12 08:34:24;;;;;;;1.92;1.58;;;;;;;24.99;66.63;95038.81;5009697;28;20214;-90
2023/07/12 08:36:50;;;;;;;9.40;8.50;;;;;;;25.14;66.43;95043.13;5008975;28;20246;-90
2023/07/12 08:39:17;;;;;;;5.80;5.20;;;;;;;25.31;66.25;95034.75;5006437;28;20218;-90
2023/07/12 08:41:43;;;;;;;2.53;2.05;;;;;;;25.42;65.22;95015.09;5009132;28;20210;-91
2023/07/12 08:44:17;;;;;;;2.25;1.55;;;;;;;25.45;64.68;94993.44;5009090;28;20213;-91
2023/07/12 08:46:49;;;;;;;5.45;2.00;;;;;;;25.53;65.98;95028.94;5009032;28;20226;-90
2023/07/12 08:49:30;;;;;;;2.95;1.48;;;;;;;25.62;64.83;94995.59;5009679;28;20206;-90
2023/07/12 08:52:15;;;;;;;2.38;1.48;;;;;;;25.61;64.19;94962.38;5009043;28;20222;-89
2023/07/12 08:55:12;;;;;;;4.22;1.60;;;;;;;25.70;63.51;94948.31;5007403;28;20218;-91
2023/07/12 08:57:54;;;;;;;2.33;1.60;;;;;;;25.79;62.75;94924.69;4991922;28;20280;-91
2023/07/12 09:06:26;;;;;;;4.88;1.60;;;;;;;26.01;60.70;94866.03;5004975;28;20779;-90
2023/07/12 09:09:03;;;;;;;1.90;1.60;;;;;;;26.12;60.35;94859.50;5008526;28;20222;-90
2023/07/12 09:11:45;;;;;;;5.97;1.65;;;;;;;26.09;59.51;94828.41;5007423;28;20203;-91
2023/07/12 09:14:30;;;;;;;3.00;1.80;;;;;;;26.24;59.35;94816.78;5008879;28;20218;-90
2023/07/12 09:17:35;;;;;;;4.15;1.77;;;;;;;26.28;59.56;94813.28;5008936;28;20235;-93
2023/07/12 09:20:02;;;;;;;2.42;1.70;;;;;;;26.41;59.91;94822.28;5008733;28;20202;-90
2023/07/12 09:22:31;;;;;;;3.28;1.80;;;;;;;26.47;59.81;94821.13;5008700;28;20205;-90
2023/07/12 09:25:21;;;;;;;2.55;1.85;;;;;;;26.52;60.29;94834.22;5009483;28;20228;-91
2023/07/12 09:27:55;;;;;;;2.60;1.63;;;;;;;26.73;59.88;94810.81;5010582;28;20717;-90
2023/07/12 09:30:33;;;;;;;4.10;2.08;;;;;;;26.87;59.54;94806.28;5011821;28;20229;-90
2023/07/12 09:33:05;;;;;;;2.35;1.73;;;;;;;26.87;58.70;94782.50;5012177;28;20229;-90
2023/07/12 09:38:40;;;;;;;2.67;2.00;;;;;;;26.95;58.01;94736.09;5011780;28;20871;-90
2023/07/12 09:41:18;;;;;;;2.08;1.75;;;;;;;27.29;58.11;94756.72;5011926;28;20672;-90
2023/07/12 09:43:48;;;;;;;4.88;1.90;;;;;;;27.56;57.25;94721.38;5010267;28;20206;-90
2023/07/12 09:46:37;;;;;;;3.88;1.83;;;;;;;27.72;56.88;94704.84;5004121;28;20735;-92
2023/07/12 09:49:13;;;;;;;4.30;1.80;;;;;;;27.67;56.07;94660.03;4992657;28;20199;-90
2023/07/12 09:51:49;;;;;;;2.30;1.80;;;;;;;27.76;55.93;94644.94;5006562;28;20202;-90
2023/07/12 09:54:29;;;;;;;4.53;2.00;;;;;;;27.99;55.46;94640.31;5012081;28;20202;-90
2023/07/12 09:57:01;;;;;;;2.28;1.80;;;;;;;28.04;54.20;94597.84;5011512;28;20223;-90
2023/07/12 09:59:39;;;;;;;4.57;1.80;;;;;;;27.97;53.87;94568.41;5010451;28;20231;-89
2023/07/12 10:02:29;;;;;;;4.55;1.80;;;;;;;28.11;53.66;94562.94;5011169;28;20205;-89
2023/07/12 10:05:00;;;;;;;3.08;1.83;;;;;;;28.25;53.73;94576.06;5011758;28;20198;-90
2023/07/12 10:07:51;;;;;;;3.70;1.80;;;;;;;28.27;53.10;94548.19;5011064;28;20218;-90
2023/07/12 10:10:28;;;;;;;2.53;1.73;;;;;;;28.36;53.10;94548.19;5011690;28;20306;-91
2023/07/12 10:13:05;;;;;;;3.38;2.10;;;;;;;28.49;54.02;94586.94;5011265;28;20695;-90
2023/07/12 10:15:35;;;;;;;2.40;1.92;;;;;;;28.72;52.29;94551.22;5010026;28;20203;-89
2023/07/12 10:18:03;;;;;;;2.45;1.90;;;;;;;28.95;52.95;94561.63;5011027;28;20234;-90
2023/07/12 10:20:39;;;;;;;3.40;3.10;;;;;;;29.16;50.84;94477.66;5011685;28;20242;-90
2023/07/12 10:23:06;;;;;;;3.50;3.17;;;;;;;29.35;50.37;94467.41;5011200;28;20290;-90
2023/07/12 10:25:35;;;;;;;2.78;2.15;;;;;;;29.51;50.49;94457.00;5011392;28;20668;-90
2023/07/12 10:28:07;;;;;;;3.17;2.30;;;;;;;29.53;49.85;94422.97;5011479;28;20219;-90
2023/07/12 10:30:41;;;;;;;3.10;2.15;;;;;;;29.71;48.59;94366.00;5009213;28;20199;-89
2023/07/12 10:33:16;;;;;;;2.88;1.92;;;;;;;29.72;48.25;94349.00;5009819;28;20210;-90
2023/07/12 10:35:49;;;;;;;3.40;1.90;;;;;;;29.38;48.75;94359.91;5010701;28;20198;-90
2023/07/12 10:38:17;;;;;;;4.65;2.10;;;;;;;29.31;49.47;94426.69;5010712;28;20222;-89
2023/07/12 10:40:50;;;;;;;2.30;2.10;;;;;;;29.33;49.05;94391.91;5011206;28;20210;-90
2023/07/12 10:43:22;;;;;;;3.25;1.98;;;;;;;29.36;49.20;94415.91;5010910;28;20199;-90
2023/07/12 10:45:55;;;;;;;3.53;2.00;;;;;;;29.43;49.56;94439.31;5010819;28;20199;-89
2023/07/12 10:48:26;;;;;;;3.22;2.25;;;;;;;29.58;49.21;94422.78;5008080;28;20237;-90
2023/07/12 10:50:56;;;;;;;3.78;2.15;;;;;;;29.85;48.61;94392.25;5009178;28;20405;-90
2023/07/12 10:53:25;;;;;;;3.30;3.00;;;;;;;30.05;47.98;94377.41;5008970;28;20187;-90
2023/07/12 10:56:13;;;;;;;4.00;2.63;;;;;;;30.04;47.66;94330.72;5009321;28;20583;-90
2023/07/12 10:58:52;;;;;;;3.92;2.40;;;;;;;30.30;47.16;94333.88;5008478;28;20222;-91
2023/07/12 11:01:55;;;;;;;2.35;2.13;;;;;;;30.46;46.19;94300.22;4991262;28;20230;-91
2023/07/12 11:04:34;;;;;;;3.25;2.38;;;;;;;30.48;47.21;94337.84;5004739;28;20205;-92
2023/07/12 11:10:16;;;;;;;4.15;2.70;;;;;;;30.49;47.08;94312.84;5009309;28;20198;-91
2023/07/12 11:12:53;;;;;;;2.83;2.30;;;;;;;30.59;46.69;94290.41;5010596;28;20639;-91
2023/07/12 11:18:32;;;;;;;3.17;2.30;;;;;;;31.06;45.75;94290.59;5009675;28;20314;-90
2023/07/12 11:21:01;;;;;;;2.20;2.00;;;;;;;31.08;45.67;94239.75;5008974;28;20213;-91
2023/07/12 11:23:46;;;;;;;4.43;2.60;;;;;;;31.15;45.64;94240.75;5010156;28;20202;-91
2023/07/12 11:26:22;;;;;;;4.00;2.67;;;;;;;31.14;46.05;94286.31;5010086;28;20778;-90
2023/07/12 11:28:49;;;;;;;3.22;2.42;;;;;;;31.26;45.97;94267.63;5010402;28;20205;-91
2023/07/12 11:31:26;;;;;;;3.45;2.33;;;;;;;31.20;45.48;94247.69;5010702;28;20234;-91
2023/07/12 11:33:55;;;;;;;3.35;2.33;;;;;;;31.04;46.39;94276.88;5010688;28;20664;-92
2023/07/12 11:36:24;;;;;;;4.80;2.60;;;;;;;31.03;45.85;94280.66;5008895;28;20284;-90
2023/07/12 11:38:54;;;;;;;3.15;2.70;;;;;;;30.99;46.77;94300.25;5009650;28;20227;-92
2023/07/12 11:41:27;;;;;;;4.50;2.72;;;;;;;31.15;46.11;94263.91;5010636;28;20853;-91
2023/07/12 11:44:04;;;;;;;3.60;2.70;;;;;;;31.06;45.95;94258.69;5010352;28;20198;-92
2023/07/12 11:46:34;;;;;;;3.90;2.83;;;;;;;31.29;46.69;94303.41;5010115;28;20219;-90
2023/07/12 11:49:13;;;;;;;3.53;2.60;;;;;;;31.46;45.61;94276.53;4994546;28;20203;-90
2023/07/12 11:51:42;;;;;;;5.40;2.95;;;;;;;31.27;45.69;94289.69;5002925;28;20238;-91
2023/07/12 11:54:21;;;;;;;3.92;3.30;;;;;;;30.87;46.08;94287.78;5009861;28;20213;-92
2023/07/12 11:56:58;;;;;;;5.85;3.50;;;;;;;30.61;47.21;94317.38;5009722;28;20851;-92
2023/07/12 11:59:29;;;;;;;5.45;4.70;;;;;;;30.40;47.96;94364.53;5009605;28;20222;-91
2023/07/12 12:01:56;;;;;;;4.78;3.50;;;;;;;30.48;47.51;94345.03;5009954;28;20541;-94